Terminal Aerodrome Forecast
Issued by NWS Mt. Holly, NJ

Home | Current Version | Previous Version | Text Only | Print | Product List | Glossary On
Versions: 1 2 3 4 5 6 7 8 9 10 11 12 13 14 15 16 17 18 19 20 21 22 23 24 25 26 27 28 29 30 31 32 33 34 35 36 37 38
000
FTAK31 PANC 222335
TAFABE
TAF
PABE 222335Z 2300/2324 28018G25KT P6SM VCSH SCT004 BKN020
     FM230300 24008KT P6SM BKN030
     FM230900 VRB06KT P6SM VCFG SCT004 BKN008
     FM231500 16007KT P6SM FEW008 BKN050=

USA.gov is the U.S. government's official web portal to all federal, state and local government web resources and services.